Time;durP1;ratioP1;P1;durP2;ratioP2;P2;SDS_P1;SDS_P2;PMS_P1;PMS_P2;Temp;Humidity;BMP_temperature;BMP_pressure;BME280_temperature;BME280_humidity;BME280_pressure;Samples;Min_cycle;Max_cycle;Signal;HPM_P1;HPM_P2
2024/01/19 00:01:51;;;;;;;7.50;4.70;;;-0.90;99.90;;;;;;5060975;28;20132;-65
2024/01/19 00:04:17;;;;;;;7.90;4.65;;;-0.90;99.90;;;;;;5061735;28;20386;-65
2024/01/19 00:06:49;;;;;;;6.75;4.00;;;-0.90;99.90;;;;;;5068391;28;20060;-65
2024/01/19 00:09:16;;;;;;;5.53;3.92;;;-0.90;99.90;;;;;;5065864;28;20055;-65
2024/01/19 00:11:48;;;;;;;8.70;4.13;;;-0.90;99.90;;;;;;5064190;28;20469;-65
2024/01/19 00:14:14;;;;;;;10.52;3.95;;;-0.80;99.90;;;;;;5036874;28;20040;-65
2024/01/19 00:16:46;;;;;;;7.50;3.97;;;-0.90;99.90;;;;;;5036342;28;20041;-65
2024/01/19 00:19:13;;;;;;;10.00;4.03;;;-0.90;99.90;;;;;;5050934;28;20048;-65
2024/01/19 00:21:46;;;;;;;9.15;5.28;;;-0.90;99.90;;;;;;5064702;28;20382;-65
2024/01/19 00:24:17;;;;;;;8.63;3.85;;;-0.90;99.90;;;;;;5052548;28;20039;-65
2024/01/19 00:26:50;;;;;;;9.15;4.32;;;-0.90;99.90;;;;;;5046932;28;20047;-65
2024/01/19 00:29:17;;;;;;;9.65;4.05;;;-0.90;99.90;;;;;;5047452;28;20037;-65
2024/01/19 00:31:47;;;;;;;8.38;4.53;;;-0.90;99.90;;;;;;5052714;28;20587;-65
2024/01/19 00:34:19;;;;;;;9.35;4.30;;;-0.90;99.90;;;;;;5041956;28;20040;-65
2024/01/19 00:36:51;;;;;;;6.70;4.85;;;-0.90;99.90;;;;;;5065422;28;20135;-65
2024/01/19 00:39:23;;;;;;;7.65;4.18;;;-0.90;99.90;;;;;;5042932;28;20044;-65
2024/01/19 00:41:50;;;;;;;9.13;4.63;;;-0.90;99.90;;;;;;5048941;28;20413;-65
2024/01/19 00:44:17;;;;;;;5.43;3.25;;;-0.90;99.90;;;;;;5058715;28;20033;-65
2024/01/19 00:46:44;;;;;;;5.63;3.90;;;-0.90;99.90;;;;;;5029885;28;20037;-65
2024/01/19 00:49:16;;;;;;;9.68;4.25;;;-0.90;99.90;;;;;;5062156;28;20123;-65
2024/01/19 00:51:48;;;;;;;7.72;4.93;;;-1.00;99.90;;;;;;5065929;28;20051;-65
2024/01/19 00:54:20;;;;;;;6.75;3.58;;;-1.00;99.90;;;;;;5064647;28;20040;-65
2024/01/19 00:56:47;;;;;;;8.63;4.40;;;-1.00;99.90;;;;;;5065254;28;20562;-65
2024/01/19 00:59:13;;;;;;;11.93;4.63;;;-1.00;99.90;;;;;;5061306;28;20067;-65
2024/01/19 01:01:45;;;;;;;8.80;4.20;;;-1.10;99.90;;;;;;5064502;28;20516;-65
2024/01/19 01:04:18;;;;;;;8.48;3.95;;;-1.00;99.90;;;;;;5038673;28;20041;-65
2024/01/19 01:06:45;;;;;;;8.65;4.57;;;-1.10;99.90;;;;;;5055355;28;20025;-66
2024/01/19 01:09:17;;;;;;;8.57;4.60;;;-1.00;99.90;;;;;;5045330;28;20068;-65
2024/01/19 01:11:44;;;;;;;7.45;4.07;;;-1.00;99.90;;;;;;5058593;28;20037;-65
2024/01/19 01:14:16;;;;;;;8.40;4.03;;;-1.00;99.90;;;;;;5063138;28;20088;-65
2024/01/19 01:16:43;;;;;;;8.13;3.85;;;-1.00;99.90;;;;;;5050213;28;20048;-65
2024/01/19 01:19:14;;;;;;;14.07;5.00;;;-1.00;99.90;;;;;;5063338;28;20402;-65
2024/01/19 01:21:46;;;;;;;7.55;4.65;;;-1.10;99.90;;;;;;5064201;28;20567;-65
2024/01/19 01:24:20;;;;;;;8.75;4.55;;;-1.00;99.90;;;;;;5052730;28;20044;-65
2024/01/19 01:26:52;;;;;;;8.05;4.45;;;-1.10;99.90;;;;;;5046347;28;20037;-65
2024/01/19 01:29:24;;;;;;;8.45;5.10;;;-1.10;99.90;;;;;;5061391;28;20036;-65
2024/01/19 01:31:51;;;;;;;10.48;5.40;;;-1.20;99.90;;;;;;5058394;28;20131;-65
2024/01/19 01:34:23;;;;;;;12.75;5.88;;;-1.20;99.90;;;;;;5050342;28;20098;-65
2024/01/19 01:36:50;;;;;;;11.38;5.47;;;-1.20;99.90;;;;;;5055627;28;20776;-65
2024/01/19 01:39:17;;;;;;;9.15;4.80;;;-1.30;99.90;;;;;;5067932;28;20052;-65
2024/01/19 01:41:49;;;;;;;10.07;5.43;;;-1.30;99.90;;;;;;5060611;28;20404;-65
2024/01/19 01:44:22;;;;;;;9.57;5.28;;;-1.30;99.90;;;;;;5044644;28;20056;-65
2024/01/19 01:46:54;;;;;;;12.98;5.88;;;-1.30;99.90;;;;;;5065308;28;20043;-65
2024/01/19 01:49:25;;;;;;;11.30;5.03;;;-1.40;99.90;;;;;;5048182;28;20047;-65
2024/01/19 01:51:58;;;;;;;12.50;5.78;;;-1.40;99.90;;;;;;5041190;28;20052;-65
2024/01/19 01:54:25;;;;;;;11.45;6.32;;;-1.40;99.90;;;;;;5063932;28;20047;-65
2024/01/19 01:56:58;;;;;;;8.57;5.35;;;-1.40;99.90;;;;;;5059473;28;20037;-65
2024/01/19 01:59:30;;;;;;;10.38;5.70;;;-1.40;99.90;;;;;;5059969;28;20056;-65
2024/01/19 02:02:02;;;;;;;12.70;6.18;;;-1.40;99.90;;;;;;5043450;28;20044;-65
2024/01/19 02:04:35;;;;;;;10.80;6.07;;;-1.40;99.90;;;;;;5056447;28;20044;-65
2024/01/19 02:07:02;;;;;;;11.40;5.97;;;-1.40;99.90;;;;;;5039010;28;20133;-65
2024/01/19 02:09:34;;;;;;;10.55;5.60;;;-1.40;99.90;;;;;;5062893;28;20047;-65
2024/01/19 02:12:06;;;;;;;12.52;6.50;;;-1.40;99.90;;;;;;5039530;28;20635;-65
2024/01/19 02:14:38;;;;;;;11.60;5.75;;;-1.50;99.90;;;;;;5050550;28;20493;-65
2024/01/19 02:17:10;;;;;;;9.77;6.10;;;-1.50;99.90;;;;;;5061275;28;20056;-65
2024/01/19 02:19:42;;;;;;;11.38;6.20;;;-1.50;99.90;;;;;;5063370;28;20048;-65
2024/01/19 02:22:09;;;;;;;10.23;6.20;;;-1.50;99.90;;;;;;5057914;28;20124;-65
2024/01/19 02:24:41;;;;;;;9.77;5.20;;;-1.60;99.90;;;;;;5057165;28;20115;-65
2024/01/19 02:27:14;;;;;;;10.25;5.53;;;-1.60;99.90;;;;;;5064593;28;20045;-65
2024/01/19 02:29:50;;;;;;;10.40;6.18;;;-1.60;99.90;;;;;;5045626;28;20036;-65
2024/01/19 02:32:22;;;;;;;10.23;5.72;;;-1.60;99.90;;;;;;5051686;28;20056;-65
2024/01/19 02:34:48;;;;;;;9.07;5.28;;;-1.60;99.90;;;;;;5040706;28;20036;-65
2024/01/19 02:37:15;;;;;;;11.13;6.32;;;-1.60;99.90;;;;;;5062658;28;20040;-65
2024/01/19 02:39:42;;;;;;;10.95;5.72;;;-1.60;99.90;;;;;;5061825;28;20125;-65
2024/01/19 02:42:14;;;;;;;12.43;6.00;;;-1.60;99.90;;;;;;5058534;28;20041;-65
2024/01/19 02:44:46;;;;;;;10.10;5.72;;;-1.60;99.90;;;;;;5049173;28;20112;-65
2024/01/19 02:47:18;;;;;;;13.20;6.30;;;-1.60;99.90;;;;;;5049068;28;20041;-65
2024/01/19 02:49:45;;;;;;;10.40;5.80;;;-1.50;99.90;;;;;;5063169;28;20046;-65
2024/01/19 02:52:16;;;;;;;9.55;6.25;;;-1.50;99.90;;;;;;5056841;28;20041;-65
2024/01/19 02:54:49;;;;;;;11.82;5.93;;;-1.50;99.90;;;;;;5056773;28;20068;-65
2024/01/19 02:57:20;;;;;;;16.63;6.78;;;-1.50;99.90;;;;;;5061700;28;20156;-65
2024/01/19 02:59:52;;;;;;;9.70;5.65;;;-1.60;99.90;;;;;;5042387;28;20510;-65
2024/01/19 03:02:24;;;;;;;12.48;6.53;;;-1.50;99.90;;;;;;5064396;28;20524;-65
2024/01/19 03:04:51;;;;;;;12.93;5.93;;;-1.50;99.90;;;;;;5047371;28;20029;-65
2024/01/19 03:07:17;;;;;;;13.48;6.07;;;-1.50;99.90;;;;;;5062449;28;20055;-65
2024/01/19 03:09:49;;;;;;;9.65;5.82;;;-1.50;99.90;;;;;;5042460;28;20197;-65
2024/01/19 03:12:17;;;;;;;9.70;5.88;;;-1.50;99.90;;;;;;5060772;28;20140;-65
2024/01/19 03:14:49;;;;;;;15.38;5.60;;;-1.60;99.90;;;;;;5059620;28;20048;-65
2024/01/19 03:17:21;;;;;;;8.93;5.35;;;-1.60;99.90;;;;;;5054507;28;20045;-65
2024/01/19 03:19:53;;;;;;;10.02;5.35;;;-1.60;99.90;;;;;;5044357;28;20036;-65
2024/01/19 03:22:26;;;;;;;10.10;5.00;;;-1.70;99.90;;;;;;5057923;28;20045;-65
2024/01/19 03:24:58;;;;;;;11.95;6.38;;;-1.70;99.90;;;;;;5058704;28;20521;-65
2024/01/19 03:27:30;;;;;;;13.00;5.03;;;-1.70;99.90;;;;;;5064010;28;20132;-65
2024/01/19 03:29:57;;;;;;;10.27;5.50;;;-1.70;99.90;;;;;;5059777;28;20037;-65
2024/01/19 03:32:29;;;;;;;7.82;6.15;;;-1.70;99.90;;;;;;5033703;28;20517;-65
2024/01/19 03:34:56;;;;;;;8.40;5.32;;;-1.70;99.90;;;;;;5060657;28;20817;-65
2024/01/19 03:37:28;;;;;;;11.32;6.03;;;-1.70;99.90;;;;;;5064263;28;20124;-65
2024/01/19 03:40:00;;;;;;;9.55;5.40;;;-1.80;99.90;;;;;;5047964;28;20110;-65
2024/01/19 03:42:32;;;;;;;10.07;5.65;;;-1.80;99.90;;;;;;5065808;28;20122;-65
2024/01/19 03:45:04;;;;;;;9.68;5.05;;;-1.90;99.90;;;;;;5047168;28;20041;-65
2024/01/19 03:47:36;;;;;;;11.23;5.78;;;-1.90;99.90;;;;;;5058699;28;20037;-66
2024/01/19 03:50:05;;;;;;;9.27;5.03;;;-1.90;99.90;;;;;;5067703;28;20124;-65
2024/01/19 03:52:37;;;;;;;9.18;5.32;;;-2.00;99.90;;;;;;5058083;28;20136;-65
2024/01/19 03:55:09;;;;;;;11.90;5.20;;;-2.00;99.90;;;;;;5052986;28;20124;-66
2024/01/19 03:57:41;;;;;;;8.90;5.25;;;-2.10;99.90;;;;;;5066002;28;20037;-65
2024/01/19 04:00:14;;;;;;;10.02;4.68;;;-2.10;99.90;;;;;;5045310;28;20049;-65
2024/01/19 04:02:46;;;;;;;10.02;5.38;;;-2.10;99.90;;;;;;5064048;28;20421;-66
2024/01/19 04:05:12;;;;;;;10.18;5.82;;;-2.20;99.90;;;;;;5059766;28;20037;-65
2024/01/19 04:07:44;;;;;;;11.90;5.72;;;-2.20;99.90;;;;;;5062205;28;20043;-65
2024/01/19 04:10:11;;;;;;;9.95;4.80;;;-2.30;99.90;;;;;;5049013;28;20037;-66
2024/01/19 04:12:43;;;;;;;12.63;5.70;;;-2.40;99.90;;;;;;5064869;28;20699;-66
2024/01/19 04:15:14;;;;;;;11.88;5.47;;;-2.40;99.90;;;;;;5063694;28;20132;-65
2024/01/19 04:17:46;;;;;;;9.02;4.45;;;-2.40;99.90;;;;;;5059769;28;20051;-66
2024/01/19 04:20:18;;;;;;;10.20;5.18;;;-2.40;99.90;;;;;;5052253;28;20052;-66
2024/01/19 04:22:50;;;;;;;9.48;4.75;;;-2.50;99.90;;;;;;5064877;28;20060;-66
2024/01/19 04:25:22;;;;;;;11.00;4.68;;;-2.70;99.90;;;;;;5049426;28;20461;-65
2024/01/19 04:27:55;;;;;;;7.95;4.50;;;-2.80;99.90;;;;;;5061151;28;20048;-65
2024/01/19 04:30:27;;;;;;;9.60;5.50;;;-2.90;99.90;;;;;;5046164;28;20583;-65
2024/01/19 04:32:59;;;;;;;8.68;4.45;;;-3.00;99.90;;;;;;5042072;28;20064;-65
2024/01/19 04:35:31;;;;;;;11.63;4.97;;;-3.00;99.90;;;;;;5053900;28;20081;-65
2024/01/19 04:38:03;;;;;;;8.48;4.40;;;-3.00;99.90;;;;;;5060279;28;20467;-65
2024/01/19 04:40:35;;;;;;;7.93;4.72;;;-3.00;99.90;;;;;;5047501;28;20149;-65
2024/01/19 04:43:06;;;;;;;7.07;4.20;;;-3.00;99.90;;;;;;5061507;28;20204;-65
2024/01/19 04:45:38;;;;;;;10.05;5.30;;;-3.00;99.90;;;;;;5066975;28;20037;-65
2024/01/19 04:48:10;;;;;;;9.70;4.68;;;-2.50;99.90;;;;;;5061243;28;20035;-65
2024/01/19 04:50:38;;;;;;;7.68;4.88;;;-2.50;99.90;;;;;;5065585;28;20044;-65
2024/01/19 04:53:10;;;;;;;8.85;4.53;;;-2.50;99.90;;;;;;5065735;28;20052;-65
2024/01/19 04:55:42;;;;;;;7.20;3.97;;;-2.70;99.90;;;;;;5065791;28;20064;-66
2024/01/19 04:58:14;;;;;;;6.47;4.13;;;-2.80;99.90;;;;;;5042493;28;20048;-65
2024/01/19 05:00:47;;;;;;;7.40;4.90;;;-2.90;99.90;;;;;;5066903;28;20045;-65
2024/01/19 05:03:19;;;;;;;6.15;2.75;;;-2.90;99.90;;;;;;5046558;28;20041;-65
2024/01/19 05:05:46;;;;;;;7.90;4.28;;;-3.00;99.90;;;;;;5059014;28;20037;-65
2024/01/19 05:08:17;;;;;;;10.13;4.20;;;-3.00;99.90;;;;;;5048849;28;20061;-66
2024/01/19 05:10:44;;;;;;;4.85;3.55;;;-3.00;99.90;;;;;;5049871;28;20036;-66
2024/01/19 05:13:16;;;;;;;9.10;3.80;;;-3.10;99.90;;;;;;5053476;28;20127;-65
2024/01/19 05:15:48;;;;;;;9.32;4.22;;;-3.10;99.90;;;;;;5059983;28;20480;-66
2024/01/19 05:18:21;;;;;;;7.05;4.75;;;-3.10;99.90;;;;;;5064579;28;20077;-65
2024/01/19 05:20:52;;;;;;;6.55;3.63;;;-3.10;99.90;;;;;;5046386;28;20408;-66
2024/01/19 05:23:24;;;;;;;7.28;4.13;;;-3.10;99.90;;;;;;5066685;28;20403;-65
2024/01/19 05:25:51;;;;;;;8.25;4.28;;;-3.20;99.90;;;;;;5071639;28;20052;-66
2024/01/19 05:28:18;;;;;;;9.20;4.15;;;-3.30;99.90;;;;;;5047853;28;20043;-65
2024/01/19 05:30:50;;;;;;;6.57;3.78;;;-3.30;99.90;;;;;;5065335;28;20036;-65
2024/01/19 05:33:22;;;;;;;6.13;3.63;;;-3.30;99.90;;;;;;5053010;28;20552;-64
2024/01/19 05:35:49;;;;;;;10.38;4.10;;;-3.40;99.90;;;;;;5065315;28;20131;-66
2024/01/19 05:38:20;;;;;;;8.02;4.50;;;-3.40;99.90;;;;;;5066074;28;20033;-66
2024/01/19 05:40:52;;;;;;;6.63;3.70;;;-3.50;99.90;;;;;;5063849;28;20067;-66
2024/01/19 05:43:19;;;;;;;7.60;4.00;;;-3.60;99.90;;;;;;5061185;28;20041;-68
2024/01/19 05:45:46;;;;;;;8.02;3.70;;;-3.60;99.90;;;;;;5049657;28;20497;-65
2024/01/19 05:48:19;;;;;;;7.53;3.53;;;-3.70;99.90;;;;;;5048617;28;20048;-65
2024/01/19 05:50:51;;;;;;;9.30;4.30;;;-3.60;99.90;;;;;;5048168;28;20052;-65
2024/01/19 05:53:23;;;;;;;8.40;3.92;;;-3.60;99.90;;;;;;5061578;28;20044;-65
2024/01/19 05:55:50;;;;;;;6.78;4.38;;;-3.60;99.90;;;;;;5062632;28;20050;-65
2024/01/19 05:58:22;;;;;;;8.65;3.95;;;-3.60;99.90;;;;;;5056469;28;20052;-65
2024/01/19 06:00:49;;;;;;;7.20;4.20;;;-3.70;99.90;;;;;;5057848;28;20583;-65
2024/01/19 06:03:21;;;;;;;6.82;4.22;;;-3.70;99.90;;;;;;5061090;28;20044;-65
2024/01/19 06:05:53;;;;;;;8.60;4.15;;;-3.70;99.90;;;;;;5059378;28;20067;-65
2024/01/19 06:08:24;;;;;;;6.40;4.20;;;-3.70;99.90;;;;;;5048046;28;20044;-65
2024/01/19 06:10:57;;;;;;;8.07;4.63;;;-3.70;99.90;;;;;;5050544;28;20039;-65
2024/01/19 06:13:29;;;;;;;15.35;5.88;;;-3.80;99.90;;;;;;5042261;28;20048;-65
2024/01/19 06:16:01;;;;;;;8.63;4.40;;;-3.80;99.90;;;;;;5061683;28;20065;-65
2024/01/19 06:18:35;;;;;;;8.85;4.88;;;-3.70;99.90;;;;;;5067280;28;20129;-65
2024/01/19 06:21:10;;;;;;;11.43;5.07;;;-3.80;99.90;;;;;;5037218;28;20048;-65
2024/01/19 06:23:43;;;;;;;9.13;4.95;;;-3.70;99.90;;;;;;5056764;28;20115;-65
2024/01/19 06:26:14;;;;;;;8.35;5.05;;;-3.70;99.90;;;;;;5059613;28;20059;-65
2024/01/19 06:28:46;;;;;;;10.98;6.18;;;-3.60;99.90;;;;;;5060022;28;20040;-65
2024/01/19 06:31:13;;;;;;;11.18;5.47;;;-3.50;99.90;;;;;;5044393;28;20033;-66
2024/01/19 06:33:46;;;;;;;17.23;8.50;;;-3.50;99.90;;;;;;5065530;28;20048;-65
2024/01/19 06:36:18;;;;;;;11.25;7.20;;;-3.40;99.90;;;;;;5050243;28;20139;-65
2024/01/19 06:38:54;;;;;;;11.15;6.90;;;-3.30;99.90;;;;;;5048791;28;20520;-65
2024/01/19 06:41:26;;;;;;;13.07;8.18;;;-3.40;99.90;;;;;;5068024;28;20048;-65
2024/01/19 06:43:53;;;;;;;25.65;14.63;;;-3.40;99.90;;;;;;5064910;28;20523;-65
2024/01/19 06:46:24;;;;;;;16.63;7.57;;;-3.40;99.90;;;;;;5047238;28;20131;-65
2024/01/19 06:48:56;;;;;;;12.00;7.32;;;-3.40;99.90;;;;;;5063412;28;20060;-65
2024/01/19 06:51:28;;;;;;;11.50;7.25;;;-3.50;99.90;;;;;;5033304;28;20497;-66
2024/01/19 06:54:00;;;;;;;16.08;7.07;;;-3.50;99.90;;;;;;5047654;28;20610;-65
2024/01/19 06:56:32;;;;;;;14.90;6.60;;;-3.50;99.90;;;;;;5034115;28;20117;-67
2024/01/19 06:59:04;;;;;;;14.25;8.18;;;-3.40;99.90;;;;;;5068439;28;20122;-65
2024/01/19 07:01:38;;;;;;;18.13;8.55;;;-3.30;99.90;;;;;;5069198;28;20133;-65
2024/01/19 07:04:05;;;;;;;18.65;9.48;;;-3.30;99.90;;;;;;5050063;28;20051;-65
2024/01/19 07:06:33;;;;;;;24.95;10.27;;;-3.20;99.90;;;;;;5049211;28;20048;-65
2024/01/19 07:09:05;;;;;;;17.75;9.95;;;-3.10;99.90;;;;;;5067219;28;20059;-66
2024/01/19 07:11:31;;;;;;;24.95;11.85;;;-3.10;99.90;;;;;;5066944;28;20090;-66
2024/01/19 07:14:04;;;;;;;18.98;11.55;;;-3.00;99.90;;;;;;5065177;28;20045;-66
2024/01/19 07:16:43;;;;;;;25.60;12.60;;;-3.00;99.90;;;;;;5066573;28;20033;-66
2024/01/19 07:19:15;;;;;;;19.20;11.55;;;-2.90;99.90;;;;;;5037880;28;20054;-66
2024/01/19 07:21:47;;;;;;;22.35;10.15;;;-2.90;99.90;;;;;;5035822;28;20528;-65
2024/01/19 07:24:19;;;;;;;29.75;13.60;;;-2.80;99.90;;;;;;5071497;28;20068;-66
2024/01/19 07:26:46;;;;;;;24.30;12.52;;;-2.80;99.90;;;;;;5072692;28;20032;-65
2024/01/19 07:29:18;;;;;;;25.85;12.32;;;-2.70;99.90;;;;;;5055127;28;20041;-65
2024/01/19 07:31:50;;;;;;;22.17;11.55;;;-2.60;99.90;;;;;;5054162;28;20051;-65
2024/01/19 07:34:21;;;;;;;22.95;12.90;;;-2.60;99.90;;;;;;5071766;28;20759;-65
2024/01/19 07:36:53;;;;;;;28.20;13.45;;;-2.60;99.90;;;;;;5052075;28;20056;-66
2024/01/19 07:39:23;;;;;;;24.33;12.48;;;-2.60;99.90;;;;;;5069076;28;20505;-65
2024/01/19 07:41:55;;;;;;;20.35;11.45;;;-2.50;99.90;;;;;;5066888;28;20040;-65
2024/01/19 07:44:27;;;;;;;22.23;12.20;;;-2.50;99.90;;;;;;5042688;28;20420;-65
2024/01/19 07:47:00;;;;;;;23.92;12.82;;;-2.50;99.90;;;;;;5061041;28;20072;-65
2024/01/19 07:49:26;;;;;;;21.75;11.98;;;-2.50;99.90;;;;;;5052076;28;20036;-66
2024/01/19 07:51:58;;;;;;;23.70;13.15;;;-2.40;99.90;;;;;;5068550;28;20052;-65
2024/01/19 07:54:30;;;;;;;26.08;13.70;;;-2.40;99.90;;;;;;5052993;28;20106;-65
2024/01/19 07:57:02;;;;;;;22.67;11.98;;;-2.30;99.90;;;;;;5049913;28;20887;-65
2024/01/19 07:59:34;;;;;;;26.38;13.68;;;-2.30;99.90;;;;;;5066555;28;20528;-65
2024/01/19 08:02:07;;;;;;;23.27;11.57;;;-2.30;99.90;;;;;;5047378;28;20059;-65
2024/01/19 08:04:39;;;;;;;28.60;12.35;;;-2.30;99.90;;;;;;5049938;28;20043;-65
2024/01/19 08:07:07;;;;;;;23.83;12.13;;;-2.30;99.90;;;;;;5063056;28;20132;-65
2024/01/19 08:09:39;;;;;;;23.08;11.85;;;-2.30;99.90;;;;;;5050343;28;20041;-65
2024/01/19 08:12:11;;;;;;;24.67;11.95;;;-2.20;99.90;;;;;;5048848;28;20049;-65
2024/01/19 08:14:38;;;;;;;30.83;12.75;;;-2.20;99.90;;;;;;5051052;28;20047;-65
2024/01/19 08:17:04;;;;;;;25.10;13.60;;;-2.20;99.90;;;;;;5049656;28;20128;-65
2024/01/19 08:19:31;;;;;;;20.88;12.25;;;-2.20;99.90;;;;;;5070046;28;20069;-66
2024/01/19 08:22:03;;;;;;;23.38;13.07;;;-2.20;99.90;;;;;;5052451;28;20053;-65
2024/01/19 08:24:37;;;;;;;23.58;12.93;;;-2.10;99.90;;;;;;5054757;28;20040;-65
2024/01/19 08:27:09;;;;;;;;;;;-2.10;99.90;;;;;;5067744;28;20041;-66
2024/01/19 08:29:36;;;;;;;25.17;11.85;;;-2.10;99.90;;;;;;5068465;28;19935;-65
2024/01/19 08:32:08;;;;;;;23.42;13.02;;;-2.00;99.90;;;;;;5063970;28;20040;-65
2024/01/19 08:34:43;;;;;;;23.27;12.50;;;-1.90;99.90;;;;;;5066695;28;20045;-65
2024/01/19 08:37:15;;;;;;;24.50;11.98;;;-1.90;99.90;;;;;;5068912;28;20134;-66
2024/01/19 08:39:47;;;;;;;23.92;12.57;;;-1.80;99.90;;;;;;5064931;28;20148;-65
2024/01/19 08:42:13;;;;;;;20.98;12.38;;;-1.70;99.90;;;;;;5069230;28;20127;-65
2024/01/19 08:44:45;;;;;;;25.55;13.13;;;-1.70;99.90;;;;;;5068302;28;20086;-65
2024/01/19 08:47:19;;;;;;;25.08;13.93;;;-1.60;99.90;;;;;;5067526;28;20044;-65
2024/01/19 08:49:51;;;;;;;26.70;13.75;;;-1.50;99.90;;;;;;5045980;28;20068;-65
2024/01/19 08:52:23;;;;;;;25.30;13.20;;;-1.40;99.90;;;;;;5068778;28;20052;-66
2024/01/19 08:54:55;;;;;;;26.15;13.65;;;-1.40;99.90;;;;;;5038168;28;20051;-65
2024/01/19 10:04:47;;;;;;;26.05;13.55;;;-1.00;99.90;;;;;;5055845;28;20524;-65
2024/01/19 10:07:19;;;;;;;27.25;13.90;;;-1.00;99.90;;;;;;5064384;28;20110;-65
2024/01/19 10:09:52;;;;;;;27.90;15.73;;;-1.00;99.90;;;;;;5057248;28;20055;-66
2024/01/19 10:12:26;;;;;;;32.67;15.18;;;-0.80;99.90;;;;;;5060383;28;20044;-65
2024/01/19 10:14:58;;;;;;;31.77;16.55;;;-0.70;99.90;;;;;;5067105;28;20071;-65
2024/01/19 10:17:31;;;;;;;33.70;16.65;;;-0.60;99.90;;;;;;5061648;28;20045;-66
2024/01/19 10:20:04;;;;;;;28.08;14.82;;;-0.50;99.90;;;;;;5067309;28;20420;-66
2024/01/19 10:22:32;;;;;;;29.77;15.90;;;-0.60;99.90;;;;;;5056916;28;20127;-65
2024/01/19 10:25:05;;;;;;;25.67;16.25;;;-0.60;99.90;;;;;;5061997;28;20124;-66
2024/01/19 10:27:38;;;;;;;33.35;16.13;;;-0.50;99.90;;;;;;5049437;28;20045;-66
2024/01/19 10:30:30;;;;;;;31.42;16.60;;;-0.60;99.90;;;;;;5063998;28;20044;-66
2024/01/19 10:33:05;;;;;;;27.95;16.42;;;-0.60;99.90;;;;;;5045689;28;20569;-65
2024/01/19 10:35:37;;;;;;;26.52;16.27;;;-0.60;99.90;;;;;;5068048;28;20056;-66
2024/01/19 10:38:10;;;;;;;28.95;15.90;;;-0.50;99.90;;;;;;5058082;28;20120;-66
2024/01/19 10:40:42;;;;;;;27.88;16.77;;;-0.50;99.90;;;;;;5050552;28;20051;-65
2024/01/19 10:43:22;;;;;;;30.45;16.67;;;-0.50;99.90;;;;;;5039990;28;20047;-66
2024/01/19 10:45:54;;;;;;;33.40;17.65;;;-0.40;99.90;;;;;;5054043;28;20059;-66
2024/01/19 10:48:26;;;;;;;33.22;18.25;;;-0.30;99.90;;;;;;5066766;28;20059;-66
2024/01/19 10:51:02;;;;;;;31.75;16.63;;;-0.20;99.90;;;;;;5053228;28;20068;-66
2024/01/19 10:53:34;;;;;;;34.05;19.23;;;-0.10;99.90;;;;;;5028582;28;20482;-66
2024/01/19 10:56:06;;;;;;;34.58;19.42;;;-0.10;99.90;;;;;;5068101;28;20045;-65
2024/01/19 10:58:38;;;;;;;28.88;17.42;;;0.00;99.90;;;;;;5059890;28;20525;-66
2024/01/19 11:01:17;;;;;;;27.50;16.45;;;0.00;99.90;;;;;;5059435;28;20045;-66
2024/01/19 11:03:50;;;;;;;25.45;13.90;;;0.10;99.90;;;;;;5049959;28;20041;-66
2024/01/19 11:06:22;;;;;;;26.13;15.15;;;0.10;99.90;;;;;;5048518;28;20041;-66
2024/01/19 11:08:54;;;;;;;24.67;13.35;;;0.20;99.90;;;;;;5060127;28;20037;-66
2024/01/19 11:11:31;;;;;;;16.90;11.45;;;0.10;99.90;;;;;;5054102;28;20418;-66
2024/01/19 11:14:02;;;;;;;20.20;10.70;;;0.10;99.90;;;;;;5054901;28;20052;-66
2024/01/19 11:16:45;;;;;;;20.13;11.95;;;0.10;99.90;;;;;;5057773;28;20141;-66
2024/01/19 11:19:18;;;;;;;17.65;11.38;;;0.00;99.90;;;;;;5046700;28;20049;-67
2024/01/19 11:21:50;;;;;;;22.25;11.68;;;0.10;99.90;;;;;;5057020;28;20052;-65
2024/01/19 11:24:26;;;;;;;18.30;10.95;;;0.10;99.90;;;;;;5046040;28;20072;-66
2024/01/19 11:27:02;;;;;;;17.42;11.35;;;0.10;99.90;;;;;;5054202;28;20037;-66
2024/01/19 11:29:45;;;;;;;18.15;11.70;;;0.00;99.90;;;;;;5060855;28;20063;-66
2024/01/19 11:32:14;;;;;;;23.98;14.45;;;0.00;99.90;;;;;;5050079;28;20061;-65
2024/01/19 11:34:52;;;;;;;20.98;12.27;;;0.00;99.90;;;;;;5020146;28;20052;-66
2024/01/19 11:37:40;;;;;;;20.42;12.52;;;-0.10;99.90;;;;;;5063956;28;20091;-65
2024/01/19 11:40:24;;;;;;;20.67;12.57;;;-0.20;99.90;;;;;;5053736;28;20049;-65
2024/01/19 11:42:56;;;;;;;;;;;-0.30;99.90;;;;;;5052457;28;20149;-66
2024/01/19 11:45:28;;;;;;;21.13;11.15;;;-0.30;99.90;;;;;;5068019;28;19924;-66
2024/01/19 11:48:00;;;;;;;22.70;12.63;;;-0.40;99.90;;;;;;5064688;28;20064;-65
2024/01/19 11:50:43;;;;;;;22.10;13.00;;;-0.60;99.90;;;;;;5068545;28;20128;-66
2024/01/19 11:53:11;;;;;;;21.70;13.30;;;-0.70;99.90;;;;;;5035923;28;20408;-66
2024/01/19 11:55:48;;;;;;;24.05;15.40;;;-0.60;99.90;;;;;;5065673;28;20051;-66
2024/01/19 11:58:29;;;;;;;21.52;13.98;;;-0.50;99.90;;;;;;5048226;28;20056;-66
2024/01/19 12:01:03;;;;;;;22.08;13.82;;;-0.50;99.90;;;;;;5038986;28;20075;-66
2024/01/19 12:03:35;;;;;;;23.50;14.13;;;-0.40;99.90;;;;;;5060348;28;20509;-66
2024/01/19 12:06:08;;;;;;;24.48;14.10;;;-0.30;99.90;;;;;;5063653;28;20064;-65
2024/01/19 12:08:40;;;;;;;21.08;12.27;;;-0.20;99.90;;;;;;5043359;28;20041;-66
2024/01/19 12:11:14;;;;;;;20.67;12.10;;;-0.10;99.90;;;;;;5061430;28;20044;-66
2024/01/19 12:13:48;;;;;;;17.70;11.43;;;0.00;99.90;;;;;;5050841;28;20053;-66
2024/01/19 12:16:19;;;;;;;20.65;11.52;;;0.10;99.90;;;;;;5066487;28;20572;-66
2024/01/19 12:18:55;;;;;;;19.23;10.80;;;0.40;99.90;;;;;;5064799;28;20119;-66
2024/01/19 12:21:27;;;;;;;17.42;10.02;;;0.50;99.90;;;;;;5065482;28;20037;-66
2024/01/19 12:23:59;;;;;;;18.40;9.95;;;0.70;99.90;;;;;;5066275;28;20055;-66
2024/01/19 12:26:31;;;;;;;16.40;9.98;;;0.80;99.90;;;;;;5058260;28;20572;-66
2024/01/19 12:29:04;;;;;;;16.52;10.60;;;0.90;99.90;;;;;;5058698;28;20044;-66
2024/01/19 12:31:37;;;;;;;14.30;9.52;;;0.90;99.90;;;;;;5040906;28;20041;-67
2024/01/19 12:34:15;;;;;;;18.55;11.57;;;0.90;99.90;;;;;;5055312;28;20517;-66
2024/01/19 12:36:47;;;;;;;16.00;9.73;;;1.00;99.90;;;;;;5064649;28;20044;-67
2024/01/19 12:39:21;;;;;;;15.20;9.00;;;1.20;99.90;;;;;;5064723;28;20040;-66
2024/01/19 12:42:05;;;;;;;15.88;10.40;;;1.30;99.90;;;;;;5066754;28;20513;-66
2024/01/19 12:44:36;;;;;;;16.70;9.65;;;1.40;99.90;;;;;;5066038;28;20581;-66
2024/01/19 12:47:08;;;;;;;17.10;9.60;;;1.30;99.90;;;;;;5068713;28;20044;-66
2024/01/19 12:49:35;;;;;;;15.15;9.90;;;1.10;99.90;;;;;;5061849;28;20033;-67
2024/01/19 12:52:07;;;;;;;15.27;9.95;;;1.20;99.90;;;;;;5062796;28;20037;-66
2024/01/19 12:54:46;;;;;;;18.33;10.48;;;1.20;99.90;;;;;;5058662;28;20139;-66
2024/01/19 12:57:18;;;;;;;16.20;9.48;;;1.20;99.90;;;;;;5049965;28;20559;-66
2024/01/19 13:00:12;;;;;;;15.70;8.95;;;1.10;99.90;;;;;;5050783;28;20037;-66
2024/01/19 13:02:44;;;;;;;16.80;9.75;;;0.90;99.90;;;;;;5065667;28;20044;-66
2024/01/19 13:05:27;;;;;;;14.57;9.30;;;0.60;99.90;;;;;;5051280;28;20493;-67
2024/01/19 13:08:03;;;;;;;17.75;9.30;;;0.60;99.90;;;;;;5048866;28;20706;-66
2024/01/19 13:10:34;;;;;;;18.08;9.50;;;0.60;99.90;;;;;;5047934;28;20033;-67
2024/01/19 13:13:08;;;;;;;14.57;9.57;;;0.50;99.90;;;;;;5063042;28;20040;-67
2024/01/19 13:15:40;;;;;;;15.70;8.82;;;0.50;99.90;;;;;;5052651;28;20087;-66
2024/01/19 13:18:12;;;;;;;11.77;8.00;;;0.30;99.90;;;;;;5063672;28;20652;-67
2024/01/19 13:20:44;;;;;;;15.15;8.80;;;0.30;99.90;;;;;;5052320;28;20060;-66
2024/01/19 13:23:17;;;;;;;15.50;8.75;;;0.30;99.90;;;;;;5063975;28;20048;-66
2024/01/19 13:25:54;;;;;;;14.77;9.10;;;0.30;99.90;;;;;;5049710;28;20033;-66
2024/01/19 13:28:26;;;;;;;13.32;8.75;;;0.30;99.90;;;;;;5048643;28;20051;-67
2024/01/19 13:30:58;;;;;;;14.52;9.23;;;0.30;99.90;;;;;;5038037;28;20402;-65
2024/01/19 13:33:30;;;;;;;16.30;8.93;;;0.30;99.90;;;;;;5066279;28;20075;-66
2024/01/19 13:36:02;;;;;;;16.80;10.07;;;0.30;99.90;;;;;;5064595;28;20066;-67
2024/01/19 13:38:29;;;;;;;16.48;10.82;;;0.30;99.90;;;;;;5054855;28;20517;-67
2024/01/19 13:40:56;;;;;;;13.77;7.95;;;0.30;99.90;;;;;;5064990;28;20045;-66
2024/01/19 13:43:23;;;;;;;13.20;8.95;;;0.20;99.90;;;;;;5048924;28;20040;-66
2024/01/19 13:45:55;;;;;;;13.60;8.20;;;0.10;99.90;;;;;;5067686;28;20048;-66
2024/01/19 13:48:27;;;;;;;13.63;7.65;;;0.10;99.90;;;;;;5052593;28;20420;-66
2024/01/19 13:51:00;;;;;;;13.18;7.75;;;0.10;99.90;;;;;;5058450;28;20049;-66
2024/01/19 13:53:32;;;;;;;12.88;7.93;;;0.30;99.90;;;;;;5064522;28;20090;-67
2024/01/19 13:56:03;;;;;;;11.32;6.78;;;0.40;99.90;;;;;;5052641;28;20047;-66
2024/01/19 13:58:36;;;;;;;13.55;7.60;;;0.60;99.90;;;;;;5052818;28;20036;-66
2024/01/19 14:01:10;;;;;;;12.57;7.70;;;0.70;99.90;;;;;;5063924;28;20060;-67
2024/01/19 14:03:42;;;;;;;;;;;0.80;99.90;;;;;;5068375;28;20033;-66
2024/01/19 14:06:11;;;;;;;9.73;6.50;;;0.90;99.90;;;;;;5071158;28;19924;-67
2024/01/19 14:08:46;;;;;;;10.32;6.93;;;1.10;99.90;;;;;;5058923;28;20120;-67
2024/01/19 14:11:19;;;;;;;12.60;6.45;;;1.20;99.90;;;;;;5058998;28;20053;-67